Hlavní strana
METAR-TAF:

METAR-TAF

Letiště :

Vadsø, Norsko

zeměpisná šířka: 70-04N, zeměpisná délka: 029-51E, výška: 3 m

Aktuální stav počasí

Zpráva byla vytvořena před 4 hodinami a 2 minutami, v 22:20 UTC
Jihozápadní vítr 19 kt
Teplota -2°C
Vlhkost vzduchu 86%
Tlak 1012 hPa
Viditelnost 10 km a více
Oblačno až skoro zataženo ve výšce 1100 ft
zvířený sníh, slabé sněžení

METAR: ENVD 172220Z 22019KT 9999 BLSN -SN BKN011 M02/M04 Q1012

Čas: 04:22 (02:22 UTC)

Předpověď počasí

Zpráva byla vytvořena před 6 hodinami a 14 minutami, v 20:08 UTC
Předpověď platná od 17 v 20 UTC do 17 v 23 UTC
Jihozápadní vítr 12 kt
Viditelnost 10 km a více
Polojasno ve výšce 1500 ft
Pravděpodobnost 40% :
Dočasný
od 17 v 20 UTC do 17 v 23 UTC
Oblačno až skoro zataženo ve výšce 800 ft

TAF: ENVD 172008Z 1720/1723 22012KT 9999 SCT015 PROB40 TEMPO 1720/1723 BKN008

Stav a předpovědi počasí z více než 4 000 letišť (zprávy METAR a TAF).

Červené a žluté tečky na mapě představují dostupné meteorologické stanice.

Když kurzor umístíte na tečku, zobrazí se název stanice.

Pak kliknutím zobrazíte stav a předpověď počasí.

Chcete-li změnit mapu, kliknutím na zelené tlačítko se znaménkem +mapu přiblížíte, kliknutím na zelené tlačítko se znaménkem – mapu oddálíte a kliknutím na zelené šipky přejdete na sousední mapy.


METAR-TAF: